NCAR-RAP Real-Time Weather Data

Output produced by METARs form (17 December 2018  06:53 UTC)
found at http://weather.rap.ucar.edu/surface/
 
RJAA 170630Z 09003KT 9999 FEW020 11/08 Q1003 NOSIG RMK 1CU020 A2963
 
RJAF 170600Z 25007KT 210V280 9999 VCSH FEW030 SCT050 10/M02 Q1003
 
RJAH 170600Z 07008KT 9999 FEW030 14/04 Q1002
 
RJGG 170630Z 34016KT 9999 FEW020 SCT050 12/06 Q1008 NOSIG
 
RJNK 170600Z 25020G31KT 9999 -SHRA FEW008 BKN020 FEW020CB BKN030 09/04 Q1008
 
RJNT 170600Z 22008KT 9999 -SHRA FEW010 BKN035 09/06 Q1007
 
RJNW 170600Z 25015G25KT 9999 -SHRA FEW003 SCT010 BKN015 FEW020CB 06/05 Q1006
 
RJTF 170600Z 16006KT 130V190 9999 FEW030 13/03 Q1002
 
 
RJTO 170600Z 23012KT 200V270 9999 FEW020 16/10 Q1002
 
RJTT 170630Z 13005KT 9999 FEW015 10/06 Q1003 NOSIG RMK 1CU015 A2963 MOD TURB OBS AT 0622Z 5NM N COLOR 12000FT IN DES BY B738